Rivadeo, Argentina
Current Conditions -  °F | °C
As of 10:00 PM on Monday 24 Nov 2014 (Local Time) from SAZN Reporting Station
Clear Clear  
Wind Chill: 19°   Ceiling: Unl
Heat Index: 19°   Visibility: 6mi
Dew Point:   Wind: 3mph
Humidity: 35%   Direction: 230°SW
Pressure: 29.94"   Gusts: NA
Location:  38.15°S, 63.06°W
Report Text: SAZN 250100Z 23003KT CAVOK 19/03 Q1014
Loading
Personal Weather Stations






























Interactive Weather Map New forecast layout! Learn more

10-Day Weather Forecast

Advertisements
Track Severe Weather on mobile